sensor_id;sensor_type;location;lat;lon;timestamp;P1;durP1;ratioP1;P2;durP2;ratioP2
4096;SDS011;2062;50.694;7.246;2022-11-02T00:00:45;6.97;;;2.33;;
4096;SDS011;2062;50.694;7.246;2022-11-02T00:03:13;7.53;;;2.08;;
4096;SDS011;2062;50.694;7.246;2022-11-02T00:05:40;9.20;;;2.30;;
4096;SDS011;2062;50.694;7.246;2022-11-02T00:08:07;7.80;;;2.20;;
4096;SDS011;2062;50.694;7.246;2022-11-02T00:10:34;8.43;;;2.40;;
4096;SDS011;2062;50.694;7.246;2022-11-02T00:13:01;6.93;;;2.00;;
4096;SDS011;2062;50.694;7.246;2022-11-02T00:15:28;8.85;;;2.10;;
4096;SDS011;2062;50.694;7.246;2022-11-02T00:18:00;7.72;;;2.00;;
4096;SDS011;2062;50.694;7.246;2022-11-02T00:20:29;8.15;;;2.20;;
4096;SDS011;2062;50.694;7.246;2022-11-02T00:22:56;9.57;;;2.15;;
4096;SDS011;2062;50.694;7.246;2022-11-02T00:25:26;5.67;;;1.80;;
4096;SDS011;2062;50.694;7.246;2022-11-02T00:27:53;6.95;;;1.80;;
4096;SDS011;2062;50.694;7.246;2022-11-02T00:30:20;8.95;;;2.40;;
4096;SDS011;2062;50.694;7.246;2022-11-02T00:32:47;6.57;;;1.85;;
4096;SDS011;2062;50.694;7.246;2022-11-02T00:35:16;8.18;;;1.90;;
4096;SDS011;2062;50.694;7.246;2022-11-02T00:37:43;7.43;;;2.20;;
4096;SDS011;2062;50.694;7.246;2022-11-02T00:40:10;5.28;;;1.80;;
4096;SDS011;2062;50.694;7.246;2022-11-02T00:42:37;7.93;;;2.25;;
4096;SDS011;2062;50.694;7.246;2022-11-02T00:45:04;7.15;;;1.98;;
4096;SDS011;2062;50.694;7.246;2022-11-02T00:47:32;6.30;;;2.00;;
4096;SDS011;2062;50.694;7.246;2022-11-02T00:49:59;6.77;;;2.10;;
4096;SDS011;2062;50.694;7.246;2022-11-02T00:52:27;5.53;;;1.85;;
4096;SDS011;2062;50.694;7.246;2022-11-02T00:54:54;6.97;;;1.63;;
4096;SDS011;2062;50.694;7.246;2022-11-02T00:57:21;8.63;;;1.90;;
4096;SDS011;2062;50.694;7.246;2022-11-02T00:59:48;6.28;;;1.80;;
4096;SDS011;2062;50.694;7.246;2022-11-02T01:02:14;6.07;;;2.00;;
4096;SDS011;2062;50.694;7.246;2022-11-02T01:04:41;9.05;;;1.77;;
4096;SDS011;2062;50.694;7.246;2022-11-02T01:07:08;9.73;;;1.98;;
4096;SDS011;2062;50.694;7.246;2022-11-02T01:09:36;5.45;;;1.63;;
4096;SDS011;2062;50.694;7.246;2022-11-02T01:12:03;6.25;;;1.85;;
4096;SDS011;2062;50.694;7.246;2022-11-02T01:14:31;7.97;;;1.57;;
4096;SDS011;2062;50.694;7.246;2022-11-02T01:16:58;7.00;;;1.70;;
4096;SDS011;2062;50.694;7.246;2022-11-02T01:19:25;6.05;;;1.65;;
4096;SDS011;2062;50.694;7.246;2022-11-02T01:21:52;5.40;;;1.60;;
4096;SDS011;2062;50.694;7.246;2022-11-02T01:24:18;6.43;;;1.80;;
4096;SDS011;2062;50.694;7.246;2022-11-02T01:26:49;5.50;;;1.70;;
4096;SDS011;2062;50.694;7.246;2022-11-02T01:29:16;5.95;;;1.80;;
4096;SDS011;2062;50.694;7.246;2022-11-02T01:31:43;5.03;;;1.63;;
4096;SDS011;2062;50.694;7.246;2022-11-02T01:34:10;6.80;;;1.70;;
4096;SDS011;2062;50.694;7.246;2022-11-02T01:36:37;7.05;;;2.17;;
4096;SDS011;2062;50.694;7.246;2022-11-02T01:39:04;5.27;;;1.70;;
4096;SDS011;2062;50.694;7.246;2022-11-02T01:41:31;7.13;;;1.80;;
4096;SDS011;2062;50.694;7.246;2022-11-02T01:44:01;5.20;;;1.80;;
4096;SDS011;2062;50.694;7.246;2022-11-02T01:46:30;7.10;;;2.00;;
4096;SDS011;2062;50.694;7.246;2022-11-02T01:49:04;5.78;;;1.50;;
4096;SDS011;2062;50.694;7.246;2022-11-02T01:51:34;4.33;;;1.33;;
4096;SDS011;2062;50.694;7.246;2022-11-02T01:54:04;5.13;;;1.50;;
4096;SDS011;2062;50.694;7.246;2022-11-02T01:56:35;5.55;;;1.83;;
4096;SDS011;2062;50.694;7.246;2022-11-02T01:59:05;6.05;;;1.60;;
4096;SDS011;2062;50.694;7.246;2022-11-02T02:01:36;5.85;;;2.00;;
4096;SDS011;2062;50.694;7.246;2022-11-02T02:04:02;6.77;;;1.70;;
4096;SDS011;2062;50.694;7.246;2022-11-02T02:06:30;6.95;;;1.75;;
4096;SDS011;2062;50.694;7.246;2022-11-02T02:08:59;4.53;;;1.60;;
4096;SDS011;2062;50.694;7.246;2022-11-02T02:11:30;5.43;;;1.63;;
4096;SDS011;2062;50.694;7.246;2022-11-02T02:13:58;5.40;;;1.60;;
4096;SDS011;2062;50.694;7.246;2022-11-02T02:16:34;6.97;;;1.70;;
4096;SDS011;2062;50.694;7.246;2022-11-02T02:19:29;6.95;;;1.60;;
4096;SDS011;2062;50.694;7.246;2022-11-02T02:22:12;6.55;;;1.45;;
4096;SDS011;2062;50.694;7.246;2022-11-02T02:24:50;5.07;;;1.60;;
4096;SDS011;2062;50.694;7.246;2022-11-02T02:27:27;4.50;;;1.80;;
4096;SDS011;2062;50.694;7.246;2022-11-02T02:30:02;4.93;;;1.37;;
4096;SDS011;2062;50.694;7.246;2022-11-02T02:32:34;5.50;;;1.58;;
4096;SDS011;2062;50.694;7.246;2022-11-02T02:35:14;5.93;;;1.77;;
4096;SDS011;2062;50.694;7.246;2022-11-02T02:37:48;6.68;;;1.80;;
4096;SDS011;2062;50.694;7.246;2022-11-02T02:40:21;5.63;;;1.55;;
4096;SDS011;2062;50.694;7.246;2022-11-02T02:42:51;5.40;;;1.40;;
4096;SDS011;2062;50.694;7.246;2022-11-02T02:45:23;5.25;;;1.30;;
4096;SDS011;2062;50.694;7.246;2022-11-02T02:47:56;5.25;;;1.70;;
4096;SDS011;2062;50.694;7.246;2022-11-02T02:50:29;4.32;;;1.30;;
4096;SDS011;2062;50.694;7.246;2022-11-02T02:53:00;5.28;;;1.60;;
4096;SDS011;2062;50.694;7.246;2022-11-02T02:55:30;5.03;;;1.40;;
4096;SDS011;2062;50.694;7.246;2022-11-02T02:58:01;5.18;;;1.40;;
4096;SDS011;2062;50.694;7.246;2022-11-02T03:00:32;4.55;;;1.30;;
4096;SDS011;2062;50.694;7.246;2022-11-02T03:03:00;6.15;;;1.73;;
4096;SDS011;2062;50.694;7.246;2022-11-02T03:05:30;5.03;;;1.40;;
4096;SDS011;2062;50.694;7.246;2022-11-02T03:07:59;4.93;;;1.40;;
4096;SDS011;2062;50.694;7.246;2022-11-02T03:10:33;6.70;;;1.60;;
4096;SDS011;2062;50.694;7.246;2022-11-02T03:13:14;6.13;;;1.42;;
4096;SDS011;2062;50.694;7.246;2022-11-02T03:15:58;6.50;;;1.55;;
4096;SDS011;2062;50.694;7.246;2022-11-02T03:18:32;5.47;;;1.40;;
4096;SDS011;2062;50.694;7.246;2022-11-02T03:21:05;4.63;;;1.40;;
4096;SDS011;2062;50.694;7.246;2022-11-02T03:23:38;5.32;;;1.65;;
4096;SDS011;2062;50.694;7.246;2022-11-02T03:26:11;5.45;;;1.30;;
4096;SDS011;2062;50.694;7.246;2022-11-02T03:28:46;5.90;;;1.70;;
4096;SDS011;2062;50.694;7.246;2022-11-02T03:31:26;6.28;;;1.50;;
4096;SDS011;2062;50.694;7.246;2022-11-02T03:34:08;4.20;;;1.50;;
4096;SDS011;2062;50.694;7.246;2022-11-02T03:36:42;5.63;;;1.60;;
4096;SDS011;2062;50.694;7.246;2022-11-02T03:39:14;5.05;;;1.20;;
4096;SDS011;2062;50.694;7.246;2022-11-02T03:41:45;4.80;;;1.50;;
4096;SDS011;2062;50.694;7.246;2022-11-02T03:44:16;5.47;;;1.52;;
4096;SDS011;2062;50.694;7.246;2022-11-02T03:46:47;4.43;;;1.10;;
4096;SDS011;2062;50.694;7.246;2022-11-02T03:49:17;7.07;;;1.40;;
4096;SDS011;2062;50.694;7.246;2022-11-02T03:51:46;5.78;;;1.33;;
4096;SDS011;2062;50.694;7.246;2022-11-02T03:54:18;4.50;;;1.27;;
4096;SDS011;2062;50.694;7.246;2022-11-02T03:56:53;5.30;;;1.50;;
4096;SDS011;2062;50.694;7.246;2022-11-02T03:59:22;3.87;;;1.30;;
4096;SDS011;2062;50.694;7.246;2022-11-02T04:01:50;5.03;;;1.20;;
4096;SDS011;2062;50.694;7.246;2022-11-02T04:04:17;5.63;;;1.58;;
4096;SDS011;2062;50.694;7.246;2022-11-02T04:06:44;5.07;;;1.50;;
4096;SDS011;2062;50.694;7.246;2022-11-02T04:09:13;5.38;;;1.20;;
4096;SDS011;2062;50.694;7.246;2022-11-02T04:11:40;4.73;;;1.10;;
4096;SDS011;2062;50.694;7.246;2022-11-02T04:14:24;4.55;;;0.90;;
4096;SDS011;2062;50.694;7.246;2022-11-02T04:17:05;6.15;;;1.50;;
4096;SDS011;2062;50.694;7.246;2022-11-02T04:19:50;5.88;;;1.35;;
4096;SDS011;2062;50.694;7.246;2022-11-02T04:22:17;4.35;;;1.45;;
4096;SDS011;2062;50.694;7.246;2022-11-02T04:25:02;4.30;;;1.30;;
4096;SDS011;2062;50.694;7.246;2022-11-02T04:27:42;4.85;;;1.30;;
4096;SDS011;2062;50.694;7.246;2022-11-02T04:30:10;5.05;;;1.58;;
4096;SDS011;2062;50.694;7.246;2022-11-02T04:32:39;4.07;;;1.20;;
4096;SDS011;2062;50.694;7.246;2022-11-02T04:35:24;4.45;;;1.30;;
4096;SDS011;2062;50.694;7.246;2022-11-02T04:37:51;4.80;;;1.33;;
4096;SDS011;2062;50.694;7.246;2022-11-02T04:40:36;4.38;;;1.20;;
4096;SDS011;2062;50.694;7.246;2022-11-02T04:43:03;3.90;;;1.10;;
4096;SDS011;2062;50.694;7.246;2022-11-02T04:45:29;4.50;;;1.08;;
4096;SDS011;2062;50.694;7.246;2022-11-02T04:48:00;5.78;;;1.33;;
4096;SDS011;2062;50.694;7.246;2022-11-02T04:50:29;3.87;;;1.30;;
4096;SDS011;2062;50.694;7.246;2022-11-02T04:52:56;4.72;;;1.52;;
4096;SDS011;2062;50.694;7.246;2022-11-02T04:55:23;4.18;;;1.50;;
4096;SDS011;2062;50.694;7.246;2022-11-02T04:57:51;4.22;;;1.13;;
4096;SDS011;2062;50.694;7.246;2022-11-02T05:00:18;3.88;;;1.13;;
4096;SDS011;2062;50.694;7.246;2022-11-02T05:02:46;5.20;;;1.20;;
4096;SDS011;2062;50.694;7.246;2022-11-02T05:05:14;5.53;;;1.27;;
4096;SDS011;2062;50.694;7.246;2022-11-02T05:07:42;4.13;;;1.30;;
4096;SDS011;2062;50.694;7.246;2022-11-02T05:10:09;5.78;;;1.40;;
4096;SDS011;2062;50.694;7.246;2022-11-02T05:12:36;5.25;;;1.30;;
4096;SDS011;2062;50.694;7.246;2022-11-02T05:15:03;5.40;;;1.23;;
4096;SDS011;2062;50.694;7.246;2022-11-02T05:17:30;5.13;;;1.50;;
4096;SDS011;2062;50.694;7.246;2022-11-02T05:19:57;4.13;;;1.30;;
4096;SDS011;2062;50.694;7.246;2022-11-02T05:22:25;4.20;;;1.30;;
4096;SDS011;2062;50.694;7.246;2022-11-02T05:24:52;13.55;;;1.73;;
4096;SDS011;2062;50.694;7.246;2022-11-02T05:27:19;6.00;;;1.67;;
4096;SDS011;2062;50.694;7.246;2022-11-02T05:29:45;9.00;;;1.40;;
4096;SDS011;2062;50.694;7.246;2022-11-02T05:32:12;7.30;;;1.40;;
4096;SDS011;2062;50.694;7.246;2022-11-02T05:34:39;12.63;;;1.60;;
4096;SDS011;2062;50.694;7.246;2022-11-02T05:37:06;6.50;;;1.40;;
4096;SDS011;2062;50.694;7.246;2022-11-02T05:39:34;9.53;;;1.30;;
4096;SDS011;2062;50.694;7.246;2022-11-02T05:42:01;5.68;;;1.30;;
4096;SDS011;2062;50.694;7.246;2022-11-02T05:44:28;7.47;;;1.50;;
4096;SDS011;2062;50.694;7.246;2022-11-02T05:46:55;6.65;;;1.15;;
4096;SDS011;2062;50.694;7.246;2022-11-02T05:49:21;6.63;;;1.42;;
4096;SDS011;2062;50.694;7.246;2022-11-02T05:51:48;5.90;;;1.50;;
4096;SDS011;2062;50.694;7.246;2022-11-02T05:54:15;9.98;;;1.58;;
4096;SDS011;2062;50.694;7.246;2022-11-02T05:56:43;9.32;;;1.83;;
4096;SDS011;2062;50.694;7.246;2022-11-02T05:59:10;5.15;;;1.20;;
4096;SDS011;2062;50.694;7.246;2022-11-02T06:01:37;8.52;;;1.48;;
4096;SDS011;2062;50.694;7.246;2022-11-02T06:04:04;8.60;;;1.20;;
4096;SDS011;2062;50.694;7.246;2022-11-02T06:06:31;7.72;;;1.40;;
4096;SDS011;2062;50.694;7.246;2022-11-02T06:08:57;7.40;;;1.50;;
4096;SDS011;2062;50.694;7.246;2022-11-02T06:11:24;8.43;;;1.50;;
4096;SDS011;2062;50.694;7.246;2022-11-02T06:13:52;5.90;;;1.08;;
4096;SDS011;2062;50.694;7.246;2022-11-02T06:16:19;6.23;;;1.40;;
4096;SDS011;2062;50.694;7.246;2022-11-02T06:18:46;7.68;;;1.17;;
4096;SDS011;2062;50.694;7.246;2022-11-02T06:21:12;5.60;;;1.30;;
4096;SDS011;2062;50.694;7.246;2022-11-02T06:23:39;6.43;;;1.40;;
4096;SDS011;2062;50.694;7.246;2022-11-02T06:26:08;6.28;;;1.48;;
4096;SDS011;2062;50.694;7.246;2022-11-02T06:28:35;7.43;;;1.30;;
4096;SDS011;2062;50.694;7.246;2022-11-02T06:31:03;6.70;;;1.60;;
4096;SDS011;2062;50.694;7.246;2022-11-02T06:33:30;5.05;;;1.23;;
4096;SDS011;2062;50.694;7.246;2022-11-02T06:35:58;4.55;;;1.27;;
4096;SDS011;2062;50.694;7.246;2022-11-02T06:38:25;7.25;;;1.67;;
4096;SDS011;2062;50.694;7.246;2022-11-02T06:40:52;7.67;;;1.23;;
4096;SDS011;2062;50.694;7.246;2022-11-02T06:43:20;7.53;;;1.30;;
4096;SDS011;2062;50.694;7.246;2022-11-02T06:45:46;6.10;;;1.23;;
4096;SDS011;2062;50.694;7.246;2022-11-02T06:48:15;4.78;;;1.20;;
4096;SDS011;2062;50.694;7.246;2022-11-02T06:50:41;5.32;;;1.30;;
4096;SDS011;2062;50.694;7.246;2022-11-02T06:53:08;6.47;;;1.57;;
4096;SDS011;2062;50.694;7.246;2022-11-02T06:55:35;6.47;;;1.40;;
4096;SDS011;2062;50.694;7.246;2022-11-02T06:58:02;7.95;;;1.50;;
4096;SDS011;2062;50.694;7.246;2022-11-02T07:00:29;4.20;;;1.20;;
4096;SDS011;2062;50.694;7.246;2022-11-02T07:02:59;6.38;;;1.40;;
4096;SDS011;2062;50.694;7.246;2022-11-02T07:05:28;5.37;;;1.17;;
4096;SDS011;2062;50.694;7.246;2022-11-02T07:07:55;5.53;;;1.20;;
4096;SDS011;2062;50.694;7.246;2022-11-02T07:10:22;5.60;;;1.30;;
4096;SDS011;2062;50.694;7.246;2022-11-02T07:12:50;4.68;;;1.23;;
4096;SDS011;2062;50.694;7.246;2022-11-02T07:15:18;6.72;;;1.33;;
4096;SDS011;2062;50.694;7.246;2022-11-02T07:17:45;5.70;;;1.20;;
4096;SDS011;2062;50.694;7.246;2022-11-02T07:20:12;6.00;;;1.23;;
4096;SDS011;2062;50.694;7.246;2022-11-02T07:22:40;3.95;;;1.05;;
4096;SDS011;2062;50.694;7.246;2022-11-02T07:25:07;5.15;;;1.20;;
4096;SDS011;2062;50.694;7.246;2022-11-02T07:27:37;5.70;;;1.30;;
4096;SDS011;2062;50.694;7.246;2022-11-02T07:30:05;6.97;;;1.13;;
4096;SDS011;2062;50.694;7.246;2022-11-02T07:32:37;5.45;;;1.23;;
4096;SDS011;2062;50.694;7.246;2022-11-02T07:35:05;6.22;;;1.20;;
4096;SDS011;2062;50.694;7.246;2022-11-02T07:37:33;5.25;;;1.00;;
4096;SDS011;2062;50.694;7.246;2022-11-02T07:40:02;5.40;;;1.13;;
4096;SDS011;2062;50.694;7.246;2022-11-02T07:42:30;4.43;;;1.20;;
4096;SDS011;2062;50.694;7.246;2022-11-02T07:44:57;4.88;;;1.17;;
4096;SDS011;2062;50.694;7.246;2022-11-02T07:47:24;4.50;;;1.10;;
4096;SDS011;2062;50.694;7.246;2022-11-02T07:49:50;4.45;;;1.00;;
4096;SDS011;2062;50.694;7.246;2022-11-02T07:52:17;5.75;;;1.10;;
4096;SDS011;2062;50.694;7.246;2022-11-02T07:54:44;4.93;;;1.30;;
4096;SDS011;2062;50.694;7.246;2022-11-02T07:57:12;5.10;;;1.00;;
4096;SDS011;2062;50.694;7.246;2022-11-02T07:59:39;4.32;;;1.17;;
4096;SDS011;2062;50.694;7.246;2022-11-02T08:02:07;4.75;;;1.30;;
4096;SDS011;2062;50.694;7.246;2022-11-02T08:04:37;4.70;;;1.30;;
4096;SDS011;2062;50.694;7.246;2022-11-02T08:07:04;3.83;;;1.00;;
4096;SDS011;2062;50.694;7.246;2022-11-02T08:09:31;8.68;;;1.40;;
4096;SDS011;2062;50.694;7.246;2022-11-02T08:11:58;4.05;;;0.93;;
4096;SDS011;2062;50.694;7.246;2022-11-02T08:14:26;3.97;;;1.10;;
4096;SDS011;2062;50.694;7.246;2022-11-02T08:16:52;3.95;;;1.00;;
4096;SDS011;2062;50.694;7.246;2022-11-02T08:19:19;3.63;;;0.90;;
4096;SDS011;2062;50.694;7.246;2022-11-02T08:21:46;4.90;;;1.00;;
4096;SDS011;2062;50.694;7.246;2022-11-02T08:24:13;4.25;;;1.23;;
4096;SDS011;2062;50.694;7.246;2022-11-02T08:26:40;5.82;;;1.10;;
4096;SDS011;2062;50.694;7.246;2022-11-02T08:29:06;5.90;;;1.13;;
4096;SDS011;2062;50.694;7.246;2022-11-02T08:31:34;5.30;;;1.10;;
4096;SDS011;2062;50.694;7.246;2022-11-02T08:34:01;4.57;;;1.00;;
4096;SDS011;2062;50.694;7.246;2022-11-02T08:36:28;4.30;;;1.27;;
4096;SDS011;2062;50.694;7.246;2022-11-02T08:38:55;5.32;;;1.10;;
4096;SDS011;2062;50.694;7.246;2022-11-02T08:41:21;4.63;;;1.00;;
4096;SDS011;2062;50.694;7.246;2022-11-02T08:43:48;5.07;;;1.10;;
4096;SDS011;2062;50.694;7.246;2022-11-02T08:46:15;6.18;;;1.13;;
4096;SDS011;2062;50.694;7.246;2022-11-02T08:48:43;5.25;;;1.17;;
4096;SDS011;2062;50.694;7.246;2022-11-02T08:51:10;5.28;;;1.40;;
4096;SDS011;2062;50.694;7.246;2022-11-02T08:53:37;4.15;;;1.10;;
4096;SDS011;2062;50.694;7.246;2022-11-02T08:56:04;4.50;;;1.00;;
4096;SDS011;2062;50.694;7.246;2022-11-02T08:58:31;5.18;;;0.95;;
4096;SDS011;2062;50.694;7.246;2022-11-02T09:00:57;4.78;;;1.13;;
4096;SDS011;2062;50.694;7.246;2022-11-02T09:03:24;5.10;;;0.95;;
4096;SDS011;2062;50.694;7.246;2022-11-02T09:05:56;4.78;;;1.27;;
4096;SDS011;2062;50.694;7.246;2022-11-02T09:08:23;4.23;;;1.20;;
4096;SDS011;2062;50.694;7.246;2022-11-02T09:10:51;3.95;;;1.00;;
4096;SDS011;2062;50.694;7.246;2022-11-02T09:13:19;4.15;;;1.00;;
4096;SDS011;2062;50.694;7.246;2022-11-02T09:15:50;5.65;;;1.20;;
4096;SDS011;2062;50.694;7.246;2022-11-02T09:18:17;5.22;;;0.98;;
4096;SDS011;2062;50.694;7.246;2022-11-02T09:20:45;4.53;;;0.87;;
4096;SDS011;2062;50.694;7.246;2022-11-02T09:23:14;5.68;;;1.20;;
4096;SDS011;2062;50.694;7.246;2022-11-02T09:25:41;4.18;;;0.85;;
4096;SDS011;2062;50.694;7.246;2022-11-02T09:28:08;4.80;;;1.20;;
4096;SDS011;2062;50.694;7.246;2022-11-02T09:30:35;4.95;;;1.10;;
4096;SDS011;2062;50.694;7.246;2022-11-02T09:33:02;3.43;;;1.07;;
4096;SDS011;2062;50.694;7.246;2022-11-02T09:35:30;3.85;;;1.20;;
4096;SDS011;2062;50.694;7.246;2022-11-02T09:37:58;4.70;;;1.17;;
4096;SDS011;2062;50.694;7.246;2022-11-02T09:40:29;3.60;;;0.90;;
4096;SDS011;2062;50.694;7.246;2022-11-02T09:43:03;3.83;;;1.00;;
4096;SDS011;2062;50.694;7.246;2022-11-02T09:45:37;4.20;;;0.90;;
4096;SDS011;2062;50.694;7.246;2022-11-02T09:48:11;3.38;;;0.90;;
4096;SDS011;2062;50.694;7.246;2022-11-02T09:50:45;4.32;;;1.15;;
4096;SDS011;2062;50.694;7.246;2022-11-02T09:53:16;4.32;;;1.00;;
4096;SDS011;2062;50.694;7.246;2022-11-02T09:55:50;4.40;;;1.08;;
4096;SDS011;2062;50.694;7.246;2022-11-02T09:58:19;3.67;;;1.13;;
4096;SDS011;2062;50.694;7.246;2022-11-02T10:00:50;6.78;;;1.20;;
4096;SDS011;2062;50.694;7.246;2022-11-02T10:03:27;6.72;;;0.88;;
4096;SDS011;2062;50.694;7.246;2022-11-02T10:06:05;3.83;;;1.15;;
4096;SDS011;2062;50.694;7.246;2022-11-02T10:08:39;4.32;;;1.15;;
4096;SDS011;2062;50.694;7.246;2022-11-02T10:11:17;4.03;;;1.17;;
4096;SDS011;2062;50.694;7.246;2022-11-02T10:13:57;4.18;;;0.90;;
4096;SDS011;2062;50.694;7.246;2022-11-02T10:16:29;4.22;;;1.05;;
4096;SDS011;2062;50.694;7.246;2022-11-02T10:19:00;4.35;;;1.00;;
4096;SDS011;2062;50.694;7.246;2022-11-02T10:21:29;5.25;;;1.35;;
4096;SDS011;2062;50.694;7.246;2022-11-02T10:24:01;4.90;;;1.00;;
4096;SDS011;2062;50.694;7.246;2022-11-02T10:26:35;4.18;;;1.00;;
4096;SDS011;2062;50.694;7.246;2022-11-02T10:29:10;4.63;;;1.08;;
4096;SDS011;2062;50.694;7.246;2022-11-02T10:31:41;4.85;;;1.17;;
4096;SDS011;2062;50.694;7.246;2022-11-02T10:34:11;3.83;;;1.23;;
4096;SDS011;2062;50.694;7.246;2022-11-02T10:36:46;4.83;;;1.10;;
4096;SDS011;2062;50.694;7.246;2022-11-02T10:39:20;3.97;;;1.10;;
4096;SDS011;2062;50.694;7.246;2022-11-02T10:42:02;3.83;;;0.82;;
4096;SDS011;2062;50.694;7.246;2022-11-02T10:44:42;4.30;;;1.00;;
4096;SDS011;2062;50.694;7.246;2022-11-02T10:47:25;4.88;;;1.08;;
4096;SDS011;2062;50.694;7.246;2022-11-02T10:49:59;3.70;;;0.80;;
4096;SDS011;2062;50.694;7.246;2022-11-02T10:52:39;4.03;;;0.93;;
4096;SDS011;2062;50.694;7.246;2022-11-02T10:55:08;4.57;;;0.98;;
4096;SDS011;2062;50.694;7.246;2022-11-02T10:57:45;4.97;;;1.10;;
4096;SDS011;2062;50.694;7.246;2022-11-02T11:00:27;4.18;;;1.00;;
4096;SDS011;2062;50.694;7.246;2022-11-02T11:03:06;3.80;;;0.90;;
4096;SDS011;2062;50.694;7.246;2022-11-02T11:05:34;4.68;;;1.00;;
4096;SDS011;2062;50.694;7.246;2022-11-02T11:08:04;4.40;;;1.13;;
4096;SDS011;2062;50.694;7.246;2022-11-02T11:10:34;4.10;;;1.00;;
4096;SDS011;2062;50.694;7.246;2022-11-02T11:13:03;4.93;;;0.90;;
4096;SDS011;2062;50.694;7.246;2022-11-02T11:15:32;3.50;;;0.70;;
4096;SDS011;2062;50.694;7.246;2022-11-02T11:18:03;3.80;;;1.10;;
4096;SDS011;2062;50.694;7.246;2022-11-02T11:20:38;3.90;;;0.90;;
4096;SDS011;2062;50.694;7.246;2022-11-02T11:23:06;4.93;;;1.08;;
4096;SDS011;2062;50.694;7.246;2022-11-02T11:25:40;4.55;;;1.20;;
4096;SDS011;2062;50.694;7.246;2022-11-02T11:28:20;3.63;;;0.80;;
4096;SDS011;2062;50.694;7.246;2022-11-02T11:30:49;3.70;;;0.75;;
4096;SDS011;2062;50.694;7.246;2022-11-02T11:33:28;3.53;;;1.00;;
4096;SDS011;2062;50.694;7.246;2022-11-02T11:35:57;3.60;;;1.00;;
4096;SDS011;2062;50.694;7.246;2022-11-02T11:38:25;3.42;;;0.90;;
4096;SDS011;2062;50.694;7.246;2022-11-02T11:40:52;4.10;;;1.03;;
4096;SDS011;2062;50.694;7.246;2022-11-02T11:43:23;3.83;;;0.80;;
4096;SDS011;2062;50.694;7.246;2022-11-02T11:45:52;3.97;;;0.82;;
4096;SDS011;2062;50.694;7.246;2022-11-02T11:48:23;3.47;;;1.00;;
4096;SDS011;2062;50.694;7.246;2022-11-02T11:50:54;4.55;;;1.10;;
4096;SDS011;2062;50.694;7.246;2022-11-02T11:53:22;3.67;;;0.80;;
4096;SDS011;2062;50.694;7.246;2022-11-02T11:55:50;3.50;;;0.90;;
4096;SDS011;2062;50.694;7.246;2022-11-02T11:58:19;3.28;;;0.80;;
4096;SDS011;2062;50.694;7.246;2022-11-02T12:01:02;4.07;;;0.85;;
4096;SDS011;2062;50.694;7.246;2022-11-02T12:03:31;3.97;;;0.93;;
4096;SDS011;2062;50.694;7.246;2022-11-02T12:06:15;4.53;;;0.77;;
4096;SDS011;2062;50.694;7.246;2022-11-02T12:08:49;3.55;;;0.90;;
4096;SDS011;2062;50.694;7.246;2022-11-02T12:11:25;4.05;;;0.90;;
4096;SDS011;2062;50.694;7.246;2022-11-02T12:14:06;4.18;;;1.10;;
4096;SDS011;2062;50.694;7.246;2022-11-02T12:16:51;4.38;;;1.10;;
4096;SDS011;2062;50.694;7.246;2022-11-02T12:19:31;3.83;;;0.90;;
4096;SDS011;2062;50.694;7.246;2022-11-02T12:22:08;4.05;;;0.65;;
4096;SDS011;2062;50.694;7.246;2022-11-02T12:24:51;3.15;;;0.70;;
4096;SDS011;2062;50.694;7.246;2022-11-02T12:27:32;3.50;;;0.95;;
4096;SDS011;2062;50.694;7.246;2022-11-02T12:30:12;4.63;;;0.80;;
4096;SDS011;2062;50.694;7.246;2022-11-02T12:35:47;2.97;;;0.70;;
4096;SDS011;2062;50.694;7.246;2022-11-02T12:41:27;2.55;;;0.60;;
4096;SDS011;2062;50.694;7.246;2022-11-02T12:44:30;3.42;;;0.98;;
4096;SDS011;2062;50.694;7.246;2022-11-02T12:47:09;3.60;;;0.77;;
4096;SDS011;2062;50.694;7.246;2022-11-02T12:49:57;3.75;;;0.90;;
4096;SDS011;2062;50.694;7.246;2022-11-02T12:52:36;4.45;;;1.10;;
4096;SDS011;2062;50.694;7.246;2022-11-02T12:55:13;3.95;;;0.90;;
4096;SDS011;2062;50.694;7.246;2022-11-02T12:57:42;4.07;;;1.10;;
4096;SDS011;2062;50.694;7.246;2022-11-02T13:00:14;3.23;;;0.70;;
4096;SDS011;2062;50.694;7.246;2022-11-02T13:02:45;3.78;;;0.85;;
4096;SDS011;2062;50.694;7.246;2022-11-02T13:05:22;4.13;;;0.90;;
4096;SDS011;2062;50.694;7.246;2022-11-02T13:07:55;4.25;;;0.90;;
4096;SDS011;2062;50.694;7.246;2022-11-02T13:10:28;3.53;;;1.00;;
4096;SDS011;2062;50.694;7.246;2022-11-02T13:13:00;3.43;;;0.90;;
4096;SDS011;2062;50.694;7.246;2022-11-02T13:15:30;4.50;;;0.77;;
4096;SDS011;2062;50.694;7.246;2022-11-02T13:18:01;3.63;;;0.82;;
4096;SDS011;2062;50.694;7.246;2022-11-02T13:20:34;3.92;;;0.88;;
4096;SDS011;2062;50.694;7.246;2022-11-02T13:23:14;5.40;;;0.88;;
4096;SDS011;2062;50.694;7.246;2022-11-02T13:25:48;3.30;;;0.83;;
4096;SDS011;2062;50.694;7.246;2022-11-02T13:28:22;3.75;;;1.00;;
4096;SDS011;2062;50.694;7.246;2022-11-02T13:30:56;4.55;;;0.77;;
4096;SDS011;2062;50.694;7.246;2022-11-02T13:33:24;3.45;;;0.70;;
4096;SDS011;2062;50.694;7.246;2022-11-02T13:35:57;3.75;;;0.95;;
4096;SDS011;2062;50.694;7.246;2022-11-02T13:38:26;3.97;;;0.90;;
4096;SDS011;2062;50.694;7.246;2022-11-02T13:41:09;4.82;;;0.90;;
4096;SDS011;2062;50.694;7.246;2022-11-02T13:43:57;4.32;;;1.00;;
4096;SDS011;2062;50.694;7.246;2022-11-02T13:46:50;5.85;;;2.25;;
4096;SDS011;2062;50.694;7.246;2022-11-02T13:49:28;31.85;;;18.10;;
4096;SDS011;2062;50.694;7.246;2022-11-02T13:51:59;37.70;;;22.90;;
4096;SDS011;2062;50.694;7.246;2022-11-02T13:54:29;33.03;;;18.10;;
4096;SDS011;2062;50.694;7.246;2022-11-02T13:56:58;23.55;;;13.25;;
4096;SDS011;2062;50.694;7.246;2022-11-02T13:59:26;18.75;;;9.60;;
4096;SDS011;2062;50.694;7.246;2022-11-02T14:01:56;12.45;;;5.68;;
4096;SDS011;2062;50.694;7.246;2022-11-02T14:04:25;12.37;;;5.10;;
4096;SDS011;2062;50.694;7.246;2022-11-02T14:06:55;18.58;;;7.53;;
4096;SDS011;2062;50.694;7.246;2022-11-02T14:09:28;21.02;;;7.63;;
4096;SDS011;2062;50.694;7.246;2022-11-02T14:12:17;18.27;;;7.80;;
4096;SDS011;2062;50.694;7.246;2022-11-02T14:17:56;12.00;;;4.50;;
4096;SDS011;2062;50.694;7.246;2022-11-02T14:20:32;12.15;;;5.25;;
4096;SDS011;2062;50.694;7.246;2022-11-02T14:25:59;12.43;;;4.43;;
4096;SDS011;2062;50.694;7.246;2022-11-02T14:28:29;12.73;;;4.80;;
4096;SDS011;2062;50.694;7.246;2022-11-02T14:31:27;11.83;;;4.40;;
4096;SDS011;2062;50.694;7.246;2022-11-02T14:34:19;13.18;;;4.18;;
4096;SDS011;2062;50.694;7.246;2022-11-02T14:37:00;10.52;;;4.10;;
4096;SDS011;2062;50.694;7.246;2022-11-02T14:39:47;13.75;;;4.28;;
4096;SDS011;2062;50.694;7.246;2022-11-02T14:42:22;10.15;;;4.05;;
4096;SDS011;2062;50.694;7.246;2022-11-02T14:47:54;10.65;;;3.42;;
4096;SDS011;2062;50.694;7.246;2022-11-02T14:50:24;11.15;;;3.80;;
4096;SDS011;2062;50.694;7.246;2022-11-02T14:52:53;11.55;;;3.75;;
4096;SDS011;2062;50.694;7.246;2022-11-02T14:55:26;11.25;;;3.22;;
4096;SDS011;2062;50.694;7.246;2022-11-02T14:57:55;9.83;;;3.27;;
4096;SDS011;2062;50.694;7.246;2022-11-02T15:00:28;9.40;;;3.72;;
4096;SDS011;2062;50.694;7.246;2022-11-02T15:03:00;10.15;;;3.42;;
4096;SDS011;2062;50.694;7.246;2022-11-02T15:05:29;11.70;;;3.30;;
4096;SDS011;2062;50.694;7.246;2022-11-02T15:07:59;9.25;;;2.92;;
4096;SDS011;2062;50.694;7.246;2022-11-02T15:10:35;9.20;;;3.30;;
4096;SDS011;2062;50.694;7.246;2022-11-02T15:13:22;8.05;;;2.90;;
4096;SDS011;2062;50.694;7.246;2022-11-02T15:16:15;9.88;;;2.95;;
4096;SDS011;2062;50.694;7.246;2022-11-02T15:18:48;8.25;;;2.88;;
4096;SDS011;2062;50.694;7.246;2022-11-02T15:21:27;10.90;;;3.47;;
4096;SDS011;2062;50.694;7.246;2022-11-02T15:26:47;7.25;;;2.78;;
4096;SDS011;2062;50.694;7.246;2022-11-02T15:29:23;9.18;;;3.00;;
4096;SDS011;2062;50.694;7.246;2022-11-02T15:32:00;9.98;;;3.70;;
4096;SDS011;2062;50.694;7.246;2022-11-02T15:34:32;9.52;;;2.97;;
4096;SDS011;2062;50.694;7.246;2022-11-02T15:37:02;8.33;;;2.67;;
4096;SDS011;2062;50.694;7.246;2022-11-02T15:39:29;8.48;;;2.80;;
4096;SDS011;2062;50.694;7.246;2022-11-02T15:42:01;8.35;;;3.20;;
4096;SDS011;2062;50.694;7.246;2022-11-02T15:44:36;9.00;;;2.95;;
4096;SDS011;2062;50.694;7.246;2022-11-02T15:47:31;9.85;;;3.20;;
4096;SDS011;2062;50.694;7.246;2022-11-02T15:50:18;8.07;;;2.93;;
4096;SDS011;2062;50.694;7.246;2022-11-02T15:53:00;10.48;;;2.80;;
4096;SDS011;2062;50.694;7.246;2022-11-02T15:55:40;7.70;;;2.90;;
4096;SDS011;2062;50.694;7.246;2022-11-02T15:58:17;8.40;;;2.70;;